createdAt,value
2018-06-05T00:00:41.124Z,20.63
2018-06-05T00:03:10.128Z,20.60
2018-06-05T00:05:39.181Z,20.58
2018-06-05T00:08:08.191Z,20.53
2018-06-05T00:10:37.196Z,20.48
2018-06-05T00:13:06.323Z,20.40
2018-06-05T00:15:35.258Z,20.30
2018-06-05T00:18:04.310Z,20.23
2018-06-05T00:20:33.308Z,20.13
2018-06-05T00:23:02.288Z,20.04
2018-06-05T00:25:31.297Z,19.95
2018-06-05T00:28:00.304Z,19.87
2018-06-05T00:30:29.346Z,19.79
2018-06-05T00:32:58.356Z,19.70
2018-06-05T00:35:27.358Z,19.66
2018-06-05T00:37:56.360Z,19.61
2018-06-05T00:40:25.364Z,19.55
2018-06-05T00:42:54.398Z,19.48
2018-06-05T00:45:23.425Z,19.46
2018-06-05T00:47:52.364Z,19.42
2018-06-05T00:50:21.304Z,19.36
2018-06-05T00:52:50.324Z,19.25
2018-06-05T00:55:19.279Z,19.19
2018-06-05T00:57:48.280Z,19.12
2018-06-05T01:00:17.228Z,19.05
2018-06-05T01:02:46.269Z,19.00
2018-06-05T01:05:16.193Z,18.95
2018-06-05T01:07:45.184Z,18.91
2018-06-05T01:10:14.180Z,18.88
2018-06-05T01:12:43.125Z,18.82
2018-06-05T01:15:12.085Z,18.75
2018-06-05T01:17:41.031Z,18.68
2018-06-05T01:20:10.009Z,18.64
2018-06-05T01:22:39.060Z,18.62
2018-06-05T01:25:08.077Z,18.57
2018-06-05T01:27:37.007Z,18.56
2018-06-05T01:30:06.069Z,18.52
2018-06-05T01:32:35.075Z,18.51
2018-06-05T01:35:04.111Z,18.48
2018-06-05T01:37:33.665Z,18.42
2018-06-05T01:40:02.729Z,18.40
2018-06-05T01:42:31.728Z,18.39
2018-06-05T01:45:00.725Z,18.37
2018-06-05T01:47:29.740Z,18.33
2018-06-05T01:49:58.686Z,18.33
2018-06-05T01:52:27.676Z,18.30
2018-06-05T01:54:56.753Z,18.28
2018-06-05T01:57:25.813Z,18.24
2018-06-05T01:59:54.827Z,18.21
2018-06-05T02:02:23.772Z,18.19
2018-06-05T02:04:52.783Z,18.15
2018-06-05T02:07:21.719Z,18.14
2018-06-05T02:09:50.726Z,18.15
2018-06-05T02:12:19.753Z,18.13
2018-06-05T02:14:48.752Z,18.11
2018-06-05T02:17:17.797Z,18.09
2018-06-05T02:19:46.807Z,18.04
2018-06-05T02:22:15.808Z,17.97
2018-06-05T02:24:44.817Z,17.92
2018-06-05T02:27:13.790Z,17.88
2018-06-05T02:29:42.771Z,17.85
2018-06-05T02:32:11.759Z,17.83
2018-06-05T02:34:40.699Z,17.80
2018-06-05T02:37:09.696Z,17.76
2018-06-05T02:39:38.712Z,17.73
2018-06-05T02:42:07.769Z,17.72
2018-06-05T02:44:36.711Z,17.71
2018-06-05T02:47:05.633Z,17.74
2018-06-05T02:49:34.612Z,17.77
2018-06-05T02:52:03.674Z,17.80
2018-06-05T02:54:32.631Z,17.82
2018-06-05T02:57:01.657Z,17.88
2018-06-05T02:59:30.604Z,17.90
2018-06-05T03:01:59.729Z,17.94
2018-06-05T03:04:28.724Z,18.00
2018-06-05T03:06:57.652Z,18.07
2018-06-05T03:09:26.593Z,18.16
2018-06-05T03:11:55.575Z,18.26
2018-06-05T03:14:24.540Z,18.39
2018-06-05T03:16:53.462Z,18.49
2018-06-05T03:19:22.548Z,18.59
2018-06-05T03:21:51.504Z,18.67
2018-06-05T03:24:20.438Z,18.81
2018-06-05T03:26:49.395Z,18.92
2018-06-05T03:29:18.344Z,19.06
2018-06-05T03:31:47.343Z,19.23
2018-06-05T03:34:16.328Z,19.39
2018-06-05T03:36:45.372Z,19.49
2018-06-05T03:39:14.383Z,19.64
2018-06-05T03:41:43.324Z,19.79
2018-06-05T03:44:12.328Z,19.95
2018-06-05T03:46:41.315Z,20.51
2018-06-05T03:49:10.329Z,21.78
2018-06-05T03:51:39.444Z,22.15
2018-06-05T03:54:08.528Z,22.11
2018-06-05T03:56:37.472Z,22.64
2018-06-05T03:59:06.420Z,22.75
2018-06-05T04:01:35.432Z,23.22
2018-06-05T04:04:04.457Z,24.68
2018-06-05T04:06:33.697Z,25.70
2018-06-05T04:09:02.712Z,27.18
2018-06-05T04:11:31.716Z,28.34
2018-06-05T04:14:00.738Z,29.30
2018-06-05T04:16:29.824Z,30.19
2018-06-05T04:18:58.776Z,30.91
2018-06-05T04:21:27.787Z,31.96
2018-06-05T04:23:56.763Z,33.07
2018-06-05T04:26:25.744Z,34.06
2018-06-05T04:28:54.751Z,34.51
2018-06-05T04:31:23.683Z,34.26
2018-06-05T04:33:52.721Z,35.10
2018-06-05T04:36:21.724Z,35.99
2018-06-05T04:38:50.770Z,36.55
2018-06-05T04:41:19.720Z,37.22
2018-06-05T04:43:48.789Z,37.76
2018-06-05T04:46:17.807Z,37.87
2018-06-05T04:48:46.819Z,37.68
2018-06-05T04:51:15.894Z,38.10
2018-06-05T04:53:45.062Z,38.61
2018-06-05T04:56:14.027Z,38.79
2018-06-05T04:58:43.104Z,38.93
2018-06-05T05:01:12.158Z,39.07
2018-06-05T05:03:41.182Z,39.25
2018-06-05T05:06:10.181Z,38.89
2018-06-05T05:08:39.257Z,39.11
2018-06-05T05:11:08.332Z,39.19
2018-06-05T05:13:37.284Z,39.78
2018-06-05T05:16:06.267Z,40.10
2018-06-05T05:18:35.214Z,39.83
2018-06-05T05:21:04.270Z,39.62
2018-06-05T05:23:33.204Z,40.00
2018-06-05T05:26:02.148Z,39.78
2018-06-05T05:28:31.157Z,38.11
2018-06-05T05:31:00.230Z,36.32
2018-06-05T05:33:29.199Z,37.19
2018-06-05T05:35:58.244Z,38.09
2018-06-05T05:38:27.264Z,38.33
2018-06-05T05:40:56.341Z,37.09
2018-06-05T05:43:25.343Z,36.48
2018-06-05T05:45:54.327Z,36.12
2018-06-05T05:48:23.342Z,36.70
2018-06-05T05:50:52.409Z,35.42
2018-06-05T05:53:21.363Z,33.97
2018-06-05T05:55:50.453Z,32.89
2018-06-05T05:58:19.405Z,32.20
2018-06-05T06:00:48.384Z,32.66
2018-06-05T06:03:17.347Z,33.50
2018-06-05T06:05:46.305Z,32.83
2018-06-05T06:08:15.264Z,32.45
2018-06-05T06:10:44.215Z,32.37
2018-06-05T06:13:13.265Z,31.76
2018-06-05T06:15:42.286Z,33.24
2018-06-05T06:18:11.236Z,34.92
2018-06-05T06:20:40.188Z,35.91
2018-06-05T06:23:09.169Z,36.04
2018-06-05T06:25:38.191Z,35.63
2018-06-05T06:28:07.208Z,36.01
2018-06-05T06:30:36.249Z,36.48
2018-06-05T06:33:05.245Z,36.97
2018-06-05T06:35:34.216Z,36.87
2018-06-05T06:38:03.262Z,36.80
2018-06-05T06:40:32.273Z,36.62
2018-06-05T06:43:01.357Z,36.89
2018-06-05T06:45:30.316Z,37.65
2018-06-05T06:47:59.381Z,38.70
2018-06-05T06:50:28.331Z,39.27
2018-06-05T06:52:57.376Z,38.67
2018-06-05T06:55:26.391Z,38.34
2018-06-05T06:57:55.404Z,37.64
2018-06-05T07:00:24.420Z,37.10
2018-06-05T07:02:53.425Z,37.56
2018-06-05T07:05:22.501Z,38.26
2018-06-05T07:07:51.440Z,38.25
2018-06-05T07:10:20.467Z,38.98
2018-06-05T07:12:49.472Z,38.42
2018-06-05T07:15:18.472Z,37.77
2018-06-05T07:17:47.469Z,37.97
2018-06-05T07:20:16.463Z,36.69
2018-06-05T07:22:45.468Z,35.11
2018-06-05T07:25:14.412Z,34.48
2018-06-05T07:27:43.344Z,34.66
2018-06-05T07:30:12.386Z,34.60
2018-06-05T07:32:41.462Z,34.62
2018-06-05T07:35:10.408Z,33.51
2018-06-05T07:37:39.360Z,33.90
2018-06-05T07:40:08.453Z,34.53
2018-06-05T07:42:37.460Z,35.16
2018-06-05T07:45:06.499Z,35.41
2018-06-05T07:47:35.513Z,35.21
2018-06-05T07:50:04.530Z,34.21
2018-06-05T07:52:33.487Z,33.68
2018-06-05T07:55:02.538Z,33.29
2018-06-05T07:57:31.541Z,33.35
2018-06-05T08:00:00.536Z,33.06
2018-06-05T08:02:29.476Z,32.67
2018-06-05T08:04:58.469Z,32.51
2018-06-05T08:07:27.420Z,32.31
2018-06-05T08:09:56.470Z,32.52
2018-06-05T08:12:25.521Z,32.08
2018-06-05T08:14:54.520Z,31.86
2018-06-05T08:17:23.467Z,31.84
2018-06-05T08:19:52.407Z,31.96
2018-06-05T08:22:21.356Z,32.00
2018-06-05T08:24:50.334Z,31.74
2018-06-05T08:27:19.301Z,31.59
2018-06-05T08:29:48.259Z,31.71
2018-06-05T08:32:18.273Z,31.58
2018-06-05T08:34:47.348Z,31.48
2018-06-05T08:37:16.340Z,31.31
2018-06-05T08:39:45.275Z,31.34
2018-06-05T08:42:14.284Z,31.52
2018-06-05T08:44:43.235Z,31.64
2018-06-05T08:47:12.169Z,31.58
2018-06-05T08:49:41.220Z,31.69
2018-06-05T08:52:10.316Z,31.27
2018-06-05T08:54:39.376Z,31.28
2018-06-05T08:57:08.425Z,31.36
2018-06-05T08:59:37.376Z,31.79
2018-06-05T09:02:06.327Z,31.97
2018-06-05T09:04:35.264Z,31.47
2018-06-05T09:07:04.316Z,31.09
2018-06-05T09:09:33.251Z,31.10
2018-06-05T09:12:02.195Z,31.17
2018-06-05T09:14:31.138Z,31.47
2018-06-05T09:17:00.185Z,31.66
2018-06-05T09:19:29.185Z,32.11
2018-06-05T09:21:58.181Z,31.84
2018-06-05T09:24:27.184Z,31.91
2018-06-05T09:26:56.177Z,32.28
2018-06-05T09:29:25.265Z,32.45
2018-06-05T09:31:54.220Z,32.72
2018-06-05T09:34:23.207Z,32.70
2018-06-05T09:36:52.240Z,32.68
2018-06-05T09:39:21.187Z,33.01
2018-06-05T09:41:50.123Z,33.04
2018-06-05T09:44:19.056Z,33.18
2018-06-05T09:46:48.157Z,33.25
2018-06-05T09:49:17.115Z,33.21
2018-06-05T09:51:46.106Z,32.99
2018-06-05T09:54:15.122Z,32.75
2018-06-05T09:56:44.065Z,33.30
2018-06-05T09:59:13.119Z,33.82
2018-06-05T10:01:42.068Z,33.61
2018-06-05T10:04:11.118Z,33.27
2018-06-05T10:06:40.120Z,32.76
2018-06-05T10:09:09.195Z,32.20
2018-06-05T10:11:38.252Z,31.26
2018-06-05T10:14:07.278Z,31.08
2018-06-05T10:16:36.223Z,31.73
2018-06-05T10:19:05.200Z,33.16
2018-06-05T10:21:34.329Z,33.86
2018-06-05T10:24:03.369Z,34.83
2018-06-05T10:26:32.348Z,35.64
2018-06-05T10:29:01.397Z,35.02
2018-06-05T10:31:30.429Z,34.24
2018-06-05T10:33:59.421Z,33.66
2018-06-05T10:36:28.376Z,33.58
2018-06-05T10:38:57.418Z,33.69
2018-06-05T10:41:26.386Z,33.68
2018-06-05T10:43:55.521Z,33.32
2018-06-05T10:46:24.455Z,32.73
2018-06-05T10:48:53.377Z,33.51
2018-06-05T10:51:22.399Z,34.88
2018-06-05T10:53:51.320Z,36.00
2018-06-05T10:56:20.301Z,36.82
2018-06-05T10:58:49.280Z,37.17
2018-06-05T11:01:18.199Z,37.42
2018-06-05T11:03:47.181Z,37.56
2018-06-05T11:06:16.100Z,37.08
2018-06-05T11:08:45.148Z,37.39
2018-06-05T11:11:14.068Z,37.74
2018-06-05T11:13:42.979Z,38.47
2018-06-05T11:16:11.956Z,38.48
2018-06-05T11:18:40.957Z,37.44
2018-06-05T11:21:09.924Z,36.57
2018-06-05T11:23:38.858Z,35.25
2018-06-05T11:26:07.857Z,34.16
2018-06-05T11:28:36.811Z,33.34
2018-06-05T11:31:05.812Z,33.07
2018-06-05T11:33:34.803Z,33.07
2018-06-05T11:36:03.759Z,33.49
2018-06-05T11:38:32.715Z,33.79
2018-06-05T11:41:01.732Z,33.76
2018-06-05T11:43:30.740Z,33.69
2018-06-05T11:45:59.740Z,33.55
2018-06-05T11:48:28.806Z,33.39
2018-06-05T11:50:57.824Z,33.30
2018-06-05T11:53:26.781Z,34.38
2018-06-05T11:55:55.869Z,35.54
2018-06-05T11:58:24.889Z,35.52
2018-06-05T12:00:53.978Z,35.13
2018-06-05T12:03:22.890Z,34.62
2018-06-05T12:05:51.949Z,34.25
2018-06-05T12:08:21.024Z,34.93
2018-06-05T12:10:50.105Z,35.20
2018-06-05T12:13:19.128Z,34.52
2018-06-05T12:15:48.153Z,33.86
2018-06-05T12:18:17.092Z,33.22
2018-06-05T12:20:46.128Z,32.76
2018-06-05T12:23:15.131Z,32.34
2018-06-05T12:25:44.184Z,32.48
2018-06-05T12:28:13.134Z,34.03
2018-06-05T12:30:42.144Z,35.72
2018-06-05T12:33:11.279Z,37.15
2018-06-05T12:35:40.281Z,37.64
2018-06-05T12:38:09.256Z,37.16
2018-06-05T12:40:38.200Z,36.86
2018-06-05T12:43:07.212Z,36.42
2018-06-05T12:45:36.168Z,36.81
2018-06-05T12:48:05.298Z,38.28
2018-06-05T12:50:34.268Z,38.87
2018-06-05T12:53:03.332Z,37.85
2018-06-05T12:55:32.287Z,37.06
2018-06-05T12:58:01.310Z,36.07
2018-06-05T13:00:30.331Z,35.29
2018-06-05T13:02:59.388Z,34.51
2018-06-05T13:05:28.581Z,34.09
2018-06-05T13:07:57.556Z,34.18
2018-06-05T13:10:26.584Z,35.53
2018-06-05T13:12:55.595Z,35.53
2018-06-05T13:15:24.603Z,34.90
2018-06-05T13:17:53.617Z,34.25
2018-06-05T13:20:22.578Z,33.68
2018-06-05T13:22:51.654Z,33.01
2018-06-05T13:25:20.685Z,32.77
2018-06-05T13:27:49.736Z,32.39
2018-06-05T13:30:18.856Z,32.12
2018-06-05T13:32:47.865Z,31.97
2018-06-05T13:35:16.848Z,31.86
2018-06-05T13:37:45.792Z,32.37
2018-06-05T13:40:14.728Z,32.99
2018-06-05T13:42:43.677Z,33.00
2018-06-05T13:45:12.672Z,32.68
2018-06-05T13:47:41.721Z,32.42
2018-06-05T13:50:10.770Z,32.11
2018-06-05T13:52:39.886Z,31.81
2018-06-05T13:55:08.836Z,31.59
2018-06-05T13:57:37.795Z,31.40
2018-06-05T14:00:07.110Z,31.22
2018-06-05T14:02:36.089Z,30.95
2018-06-05T14:05:05.147Z,30.92
2018-06-05T14:07:34.155Z,30.91
2018-06-05T14:10:03.100Z,31.02
2018-06-05T14:12:32.064Z,31.08
2018-06-05T14:15:01.068Z,31.03
2018-06-05T14:17:30.078Z,30.98
2018-06-05T14:19:59.117Z,30.76
2018-06-05T14:22:28.082Z,30.28
2018-06-05T14:24:57.035Z,29.84
2018-06-05T14:27:26.005Z,29.32
2018-06-05T14:29:55.046Z,28.90
2018-06-05T14:32:24.112Z,28.85
2018-06-05T14:34:53.071Z,28.81
2018-06-05T14:37:22.110Z,28.65
2018-06-05T14:39:51.067Z,28.32
2018-06-05T14:42:20.076Z,28.15
2018-06-05T14:44:49.080Z,27.92
2018-06-05T14:47:18.031Z,27.59
2018-06-05T14:49:47.059Z,27.39
2018-06-05T14:52:16.007Z,27.19
2018-06-05T14:54:44.980Z,27.06
2018-06-05T14:57:13.989Z,26.98
2018-06-05T14:59:43.000Z,26.89
2018-06-05T15:02:11.952Z,26.79
2018-06-05T15:04:40.928Z,26.93
2018-06-05T15:07:10.038Z,26.96
2018-06-05T15:09:38.985Z,26.94
2018-06-05T15:12:07.941Z,27.00
2018-06-05T15:14:36.896Z,27.02
2018-06-05T15:17:06.054Z,27.01
2018-06-05T15:19:35.072Z,27.05
2018-06-05T15:22:04.049Z,27.02
2018-06-05T15:24:33.068Z,27.05
2018-06-05T15:27:02.141Z,27.00
2018-06-05T15:29:31.156Z,27.05
2018-06-05T15:32:00.172Z,27.02
2018-06-05T15:34:29.131Z,27.01
2018-06-05T15:36:58.129Z,27.01
2018-06-05T15:39:27.212Z,26.93
2018-06-05T15:41:56.208Z,26.93
2018-06-05T15:44:25.208Z,26.99
2018-06-05T15:46:54.218Z,27.00
2018-06-05T15:49:23.219Z,27.02
2018-06-05T15:51:52.176Z,27.05
2018-06-05T15:54:21.152Z,27.08
2018-06-05T15:56:50.165Z,27.13
2018-06-05T15:59:19.209Z,27.16
2018-06-05T16:01:48.184Z,27.21
2018-06-05T16:04:17.205Z,27.21
2018-06-05T16:06:46.277Z,27.22
2018-06-05T16:09:15.310Z,27.27
2018-06-05T16:11:44.328Z,27.24
2018-06-05T16:14:13.349Z,27.20
2018-06-05T16:16:42.333Z,27.16
2018-06-05T16:19:11.414Z,27.09
2018-06-05T16:21:40.357Z,27.05
2018-06-05T16:24:09.408Z,26.99
2018-06-05T16:26:38.357Z,26.93
2018-06-05T16:29:07.304Z,26.85
2018-06-05T16:31:36.353Z,26.79
2018-06-05T16:34:05.310Z,26.62
2018-06-05T16:36:34.304Z,26.52
2018-06-05T16:39:03.396Z,26.48
2018-06-05T16:41:32.397Z,26.38
2018-06-05T16:44:01.404Z,26.25
2018-06-05T16:46:30.409Z,26.11
2018-06-05T16:48:59.390Z,25.99
2018-06-05T16:51:28.441Z,25.81
2018-06-05T16:53:57.411Z,25.76
2018-06-05T16:56:26.417Z,25.69
2018-06-05T16:58:55.444Z,25.61
2018-06-05T17:01:24.454Z,25.42
2018-06-05T17:03:53.464Z,25.29
2018-06-05T17:06:22.425Z,25.19
2018-06-05T17:08:51.544Z,25.14
2018-06-05T17:11:20.508Z,25.12
2018-06-05T17:13:49.589Z,25.13
2018-06-05T17:16:18.586Z,25.09
2018-06-05T17:18:47.535Z,25.00
2018-06-05T17:21:16.554Z,25.00
2018-06-05T17:23:45.596Z,24.94
2018-06-05T17:26:14.549Z,24.90
2018-06-05T17:28:43.562Z,24.87
2018-06-05T17:31:12.600Z,24.81
2018-06-05T17:33:41.737Z,24.75
2018-06-05T17:36:10.746Z,24.74
2018-06-05T17:38:39.784Z,24.66
2018-06-05T17:41:08.840Z,24.60
2018-06-05T17:43:37.832Z,24.51
2018-06-05T17:46:06.856Z,24.46
2018-06-05T17:48:35.835Z,24.39
2018-06-05T17:51:04.931Z,24.29
2018-06-05T17:53:33.945Z,24.21
2018-06-05T17:56:02.950Z,24.17
2018-06-05T17:58:31.985Z,24.13
2018-06-05T18:01:01.004Z,24.10
2018-06-05T18:03:30.045Z,24.05
2018-06-05T18:05:58.992Z,23.96
2018-06-05T18:08:28.008Z,23.86
2018-06-05T18:10:57.048Z,23.85
2018-06-05T18:13:26.063Z,23.81
2018-06-05T18:15:55.216Z,23.81
2018-06-05T18:18:24.357Z,23.76
2018-06-05T18:20:53.390Z,23.73
2018-06-05T18:23:22.388Z,23.67
2018-06-05T18:25:51.409Z,23.67
2018-06-05T18:28:20.439Z,23.64
2018-06-05T18:30:49.661Z,23.59
2018-06-05T18:33:18.640Z,23.58
2018-06-05T18:35:47.675Z,23.54
2018-06-05T18:38:16.758Z,23.45
2018-06-05T18:40:45.781Z,23.32
2018-06-05T18:43:14.804Z,23.19
2018-06-05T18:45:43.801Z,23.16
2018-06-05T18:48:12.824Z,23.14
2018-06-05T18:50:41.832Z,23.08
2018-06-05T18:53:10.815Z,23.05
2018-06-05T18:55:39.808Z,23.05
2018-06-05T18:58:08.826Z,23.02
2018-06-05T19:00:37.857Z,22.94
2018-06-05T19:03:06.818Z,22.88
2018-06-05T19:06:06.645Z,22.81
2018-06-05T19:08:35.619Z,22.71
2018-06-05T19:11:04.705Z,22.64
2018-06-05T19:13:33.698Z,22.58
2018-06-05T19:16:02.652Z,22.54
2018-06-05T19:18:31.669Z,22.52
2018-06-05T19:21:00.646Z,22.53
2018-06-05T19:23:29.705Z,22.54
2018-06-05T19:25:58.732Z,22.49
2018-06-05T19:28:27.744Z,22.43
2018-06-05T19:30:56.751Z,22.33
2018-06-05T19:33:25.826Z,22.24
2018-06-05T19:35:54.877Z,22.20
2018-06-05T19:38:23.872Z,22.12
2018-06-05T19:40:52.920Z,22.05
2018-06-05T19:43:21.925Z,22.03
2018-06-05T19:45:50.876Z,22.07
2018-06-05T19:48:19.841Z,22.05
2018-06-05T19:50:48.792Z,22.02
2018-06-05T19:53:17.813Z,22.01
2018-06-05T19:55:46.872Z,22.02
2018-06-05T19:58:15.894Z,22.00
2018-06-05T20:00:44.973Z,21.98
2018-06-05T20:03:14.096Z,21.99
2018-06-05T20:05:43.048Z,21.99
2018-06-05T20:08:12.000Z,22.00
2018-06-05T20:10:41.017Z,21.97
2018-06-05T20:13:09.953Z,21.97
2018-06-05T20:15:38.965Z,21.93
2018-06-05T20:18:07.964Z,21.95
2018-06-05T20:20:37.004Z,21.92
2018-06-05T20:23:05.979Z,21.95
2018-06-05T20:25:35.028Z,21.92
2018-06-05T20:28:03.987Z,21.95
2018-06-05T20:30:32.929Z,21.95
2018-06-05T20:33:01.937Z,21.98
2018-06-05T20:35:30.879Z,21.94
2018-06-05T20:37:59.924Z,21.93
2018-06-05T20:40:28.969Z,21.92
2018-06-05T20:42:57.961Z,21.94
2018-06-05T20:45:26.884Z,21.98
2018-06-05T20:47:55.816Z,21.96
2018-06-05T20:50:24.813Z,21.92
2018-06-05T20:52:53.809Z,21.97
2018-06-05T20:55:22.796Z,21.98
2018-06-05T20:57:51.788Z,21.98
2018-06-05T21:00:20.728Z,21.93
2018-06-05T21:02:49.749Z,21.94
2018-06-05T21:05:18.780Z,21.93
2018-06-05T21:07:47.804Z,21.96
2018-06-05T21:10:16.788Z,21.93
2018-06-05T21:12:45.824Z,21.86
2018-06-05T21:15:14.824Z,21.80
2018-06-05T21:17:43.760Z,21.65
2018-06-05T21:20:12.764Z,21.55
2018-06-05T21:22:41.780Z,21.47
2018-06-05T21:25:10.724Z,21.46
2018-06-05T21:27:39.660Z,21.41
2018-06-05T21:30:08.781Z,21.35
2018-06-05T21:32:37.749Z,21.28
2018-06-05T21:35:06.692Z,21.25
2018-06-05T21:37:35.645Z,21.22
2018-06-05T21:40:04.628Z,21.16
2018-06-05T21:42:33.563Z,21.14
2018-06-05T21:45:02.512Z,21.13
2018-06-05T21:47:31.501Z,21.12
2018-06-05T21:50:00.541Z,21.07
2018-06-05T21:52:29.506Z,21.10
2018-06-05T21:54:58.538Z,21.14
2018-06-05T21:57:27.533Z,21.16
2018-06-05T21:59:56.481Z,21.15
2018-06-05T22:02:25.444Z,21.16
2018-06-05T22:04:54.420Z,21.18
2018-06-05T22:07:23.365Z,21.14
2018-06-05T22:09:52.296Z,21.16
2018-06-05T22:12:21.235Z,21.20
2018-06-05T22:14:50.172Z,21.20
2018-06-05T22:17:19.115Z,21.32
2018-06-05T22:19:48.047Z,21.32
2018-06-05T22:22:17.015Z,21.36
2018-06-05T22:24:46.020Z,21.41
2018-06-05T22:27:14.981Z,21.48
2018-06-05T22:29:43.924Z,21.48
2018-06-05T22:32:12.852Z,21.48
2018-06-05T22:34:41.804Z,21.46
2018-06-05T22:37:10.749Z,21.45
2018-06-05T22:39:39.728Z,21.44
2018-06-05T22:42:08.660Z,21.46
2018-06-05T22:44:37.592Z,21.45
2018-06-05T22:47:06.545Z,21.45
2018-06-05T22:49:35.485Z,21.42
2018-06-05T22:52:04.451Z,21.33
2018-06-05T22:54:33.389Z,21.20
2018-06-05T22:57:02.352Z,21.08
2018-06-05T22:59:31.280Z,20.98
2018-06-05T23:02:00.219Z,20.87
2018-06-05T23:04:29.172Z,20.77
2018-06-05T23:06:58.109Z,20.73
2018-06-05T23:09:27.077Z,20.64
2018-06-05T23:11:56.011Z,20.53
2018-06-05T23:14:24.944Z,20.44
2018-06-05T23:16:53.994Z,20.37
2018-06-05T23:19:22.943Z,20.31
2018-06-05T23:21:51.875Z,20.29
2018-06-05T23:24:20.805Z,20.26
2018-06-05T23:26:49.770Z,20.20
2018-06-05T23:29:18.709Z,20.08
2018-06-05T23:31:47.636Z,19.99
2018-06-05T23:34:16.584Z,19.94
2018-06-05T23:36:45.545Z,19.89
2018-06-05T23:39:14.492Z,19.85
2018-06-05T23:41:43.484Z,19.85
2018-06-05T23:44:12.526Z,19.77
2018-06-05T23:46:41.581Z,19.80
2018-06-05T23:49:10.545Z,19.79
2018-06-05T23:51:39.540Z,19.79
2018-06-05T23:54:08.681Z,19.72
2018-06-05T23:56:37.628Z,19.68
2018-06-05T23:59:06.642Z,19.63
